createdAt,value
2024-03-12T00:00:46.796Z,7.21
2024-03-12T00:03:13.402Z,7.40
2024-03-12T00:05:41.879Z,7.11
2024-03-12T00:08:08.901Z,6.83
2024-03-12T00:10:35.554Z,7.01
2024-03-12T00:13:03.192Z,6.84
2024-03-12T00:15:30.214Z,6.98
2024-03-12T00:17:56.966Z,6.84
2024-03-12T00:20:36.482Z,6.94
2024-03-12T00:23:03.403Z,6.95
2024-03-12T00:25:31.740Z,7.01
2024-03-12T00:27:58.479Z,7.11
2024-03-12T00:30:31.958Z,7.07
2024-03-12T00:32:59.312Z,7.36
2024-03-12T00:35:29.274Z,7.26
2024-03-12T00:37:58.105Z,7.34
2024-03-12T00:40:34.182Z,7.17
2024-03-12T00:43:01.540Z,6.94
2024-03-12T00:45:30.848Z,6.79
2024-03-12T00:47:58.530Z,6.89
2024-03-12T00:50:25.205Z,7.21
2024-03-12T00:52:54.345Z,7.23
2024-03-12T00:55:22.121Z,7.34
2024-03-12T00:57:53.866Z,7.62
2024-03-12T01:00:26.911Z,7.55
2024-03-12T01:02:55.404Z,7.50
2024-03-12T01:05:26.659Z,7.51
2024-03-12T01:08:00.034Z,7.50
2024-03-12T01:10:31.591Z,7.55
2024-03-12T01:13:00.160Z,7.58
2024-03-12T01:15:27.767Z,7.46
2024-03-12T01:17:55.271Z,7.61
2024-03-12T01:20:23.092Z,7.53
2024-03-12T01:22:51.700Z,7.80
2024-03-12T01:25:19.166Z,7.90
2024-03-12T01:27:45.707Z,7.62
2024-03-12T01:30:15.645Z,7.63
2024-03-12T01:32:42.687Z,7.66
2024-03-12T01:35:09.592Z,7.72
2024-03-12T01:37:44.189Z,8.04
2024-03-12T01:40:22.706Z,8.03
2024-03-12T01:42:55.303Z,7.98
2024-03-12T01:45:23.975Z,7.91
2024-03-12T01:47:56.045Z,7.97
2024-03-12T01:50:25.788Z,8.16
2024-03-12T01:52:59.425Z,7.87
2024-03-12T01:55:26.197Z,8.01
2024-03-12T01:57:55.779Z,7.84
2024-03-12T02:00:22.905Z,7.60
2024-03-12T02:02:53.489Z,7.68
2024-03-12T02:05:20.928Z,7.97
2024-03-12T02:07:50.952Z,7.59
2024-03-12T02:10:20.101Z,7.46
2024-03-12T02:12:47.470Z,7.48
2024-03-12T02:15:18.902Z,7.87
2024-03-12T02:17:46.107Z,7.59
2024-03-12T02:20:14.009Z,7.70
2024-03-12T02:22:41.401Z,7.81
2024-03-12T02:25:11.304Z,7.75
2024-03-12T02:27:38.938Z,7.57
2024-03-12T02:30:06.244Z,7.77
2024-03-12T02:32:33.765Z,7.66
2024-03-12T02:35:00.557Z,7.68
2024-03-12T02:37:27.086Z,7.41
2024-03-12T02:39:53.608Z,7.49
2024-03-12T02:42:20.218Z,7.28
2024-03-12T02:44:47.029Z,7.45
2024-03-12T02:47:14.084Z,7.56
2024-03-12T02:49:40.862Z,7.72
2024-03-12T02:52:07.999Z,7.46
2024-03-12T02:54:34.562Z,7.50
2024-03-12T02:57:01.151Z,7.62
2024-03-12T02:59:28.534Z,7.52
2024-03-12T03:01:58.540Z,7.69
2024-03-12T03:04:25.134Z,7.56
2024-03-12T03:06:52.568Z,7.79
2024-03-12T03:09:19.753Z,8.07
2024-03-12T03:11:46.467Z,7.50
2024-03-12T03:14:13.026Z,7.14
2024-03-12T03:16:39.509Z,7.39
2024-03-12T03:19:06.561Z,7.45
2024-03-12T03:21:33.158Z,7.45
2024-03-12T03:23:59.823Z,7.59
2024-03-12T03:26:26.378Z,7.56
2024-03-12T03:28:52.883Z,7.10
2024-03-12T03:31:19.478Z,7.23
2024-03-12T03:33:48.640Z,7.50
2024-03-12T03:36:15.423Z,7.50
2024-03-12T03:38:42.134Z,7.57
2024-03-12T03:41:10.494Z,7.64
2024-03-12T03:43:38.682Z,7.78
2024-03-12T03:46:06.241Z,7.80
2024-03-12T03:48:32.820Z,7.63
2024-03-12T03:50:59.338Z,7.64
2024-03-12T03:53:26.103Z,7.34
2024-03-12T03:55:55.437Z,7.22
2024-03-12T03:58:24.739Z,7.04
2024-03-12T04:00:54.204Z,7.03
2024-03-12T04:03:21.804Z,7.26
2024-03-12T04:05:48.536Z,7.09
2024-03-12T04:08:17.305Z,7.27
2024-03-12T04:10:43.948Z,7.21
2024-03-12T04:13:10.826Z,7.49
2024-03-12T04:15:37.547Z,7.42
2024-03-12T04:18:04.234Z,7.67
2024-03-12T04:20:30.807Z,7.48
2024-03-12T04:22:57.426Z,7.27
2024-03-12T04:25:24.021Z,7.22
2024-03-12T04:27:52.006Z,7.11
2024-03-12T04:30:19.739Z,7.28
2024-03-12T04:32:48.670Z,7.18
2024-03-12T04:35:15.287Z,7.30
2024-03-12T04:37:42.132Z,7.18
2024-03-12T04:40:09.409Z,7.19
2024-03-12T04:42:37.796Z,7.17
2024-03-12T04:45:08.802Z,7.30
2024-03-12T04:47:38.385Z,6.88
2024-03-12T04:50:05.479Z,6.78
2024-03-12T04:52:34.805Z,6.86
2024-03-12T04:55:01.751Z,6.70
2024-03-12T04:57:28.436Z,6.97
2024-03-12T04:59:55.742Z,7.33
2024-03-12T05:02:22.232Z,6.79
2024-03-12T05:04:48.712Z,6.49
2024-03-12T05:07:15.265Z,6.99
2024-03-12T05:09:41.827Z,7.05
2024-03-12T05:12:08.482Z,6.98
2024-03-12T05:14:35.072Z,6.97
2024-03-12T05:17:01.600Z,6.90
2024-03-12T05:19:28.129Z,7.03
2024-03-12T05:21:54.731Z,7.06
2024-03-12T05:24:21.303Z,6.98
2024-03-12T05:26:50.508Z,6.79
2024-03-12T05:29:18.759Z,6.74
2024-03-12T05:31:45.464Z,6.89
2024-03-12T05:34:20.113Z,7.10
2024-03-12T05:36:49.916Z,6.89
2024-03-12T05:39:20.590Z,7.14
2024-03-12T05:41:50.566Z,6.89
2024-03-12T05:44:35.504Z,6.89
2024-03-12T05:47:20.421Z,7.02
2024-03-12T05:49:46.895Z,6.89
2024-03-12T05:52:13.510Z,7.11
2024-03-12T05:54:41.624Z,7.20
2024-03-12T05:57:08.203Z,7.41
2024-03-12T05:59:34.676Z,7.59
2024-03-12T06:02:01.895Z,7.52
2024-03-12T06:04:33.156Z,7.47
2024-03-12T06:07:02.953Z,7.45
2024-03-12T06:09:29.897Z,7.16
2024-03-12T06:11:56.406Z,7.26
2024-03-12T06:14:26.304Z,7.17
2024-03-12T06:16:52.987Z,7.39
2024-03-12T06:19:20.541Z,7.45
2024-03-12T06:21:47.524Z,7.06
2024-03-12T06:24:14.133Z,7.46
2024-03-12T06:26:41.283Z,7.44
2024-03-12T06:29:08.241Z,7.52
2024-03-12T06:31:35.967Z,7.41
2024-03-12T06:34:03.293Z,7.52
2024-03-12T06:36:29.834Z,7.63
2024-03-12T06:38:56.328Z,7.33
2024-03-12T06:41:25.514Z,7.50
2024-03-12T06:43:52.145Z,7.41
2024-03-12T06:46:20.917Z,7.41
2024-03-12T06:48:48.491Z,7.47
2024-03-12T06:51:16.729Z,7.54
2024-03-12T06:53:44.449Z,7.36
2024-03-12T06:56:12.657Z,7.63
2024-03-12T06:58:45.989Z,7.78
2024-03-12T07:01:14.771Z,7.80
2024-03-12T07:03:43.830Z,7.80
2024-03-12T07:06:10.418Z,7.49
2024-03-12T07:08:40.127Z,7.55
2024-03-12T07:11:08.625Z,7.84
2024-03-12T07:13:35.550Z,7.70
2024-03-12T07:16:04.204Z,7.42
2024-03-12T07:18:30.748Z,7.55
2024-03-12T07:20:57.379Z,7.84
2024-03-12T07:23:23.914Z,7.59
2024-03-12T07:25:50.986Z,7.53
2024-03-12T07:28:20.735Z,7.64
2024-03-12T07:30:51.246Z,7.49
2024-03-12T07:33:18.037Z,7.38
2024-03-12T07:35:44.697Z,7.37
2024-03-12T07:38:11.191Z,7.27
2024-03-12T07:40:39.309Z,7.57
2024-03-12T07:43:07.095Z,7.81
2024-03-12T07:45:33.770Z,7.94
2024-03-12T07:48:00.428Z,7.86
2024-03-12T07:50:31.862Z,7.89
2024-03-12T07:52:58.421Z,8.02
2024-03-12T07:55:26.424Z,7.96
2024-03-12T07:57:53.006Z,7.88
2024-03-12T08:00:20.388Z,7.89
2024-03-12T08:02:47.065Z,8.09
2024-03-12T08:05:14.056Z,8.05
2024-03-12T08:07:41.015Z,7.83
2024-03-12T08:10:10.558Z,8.41
2024-03-12T08:12:40.412Z,8.46
2024-03-12T08:15:08.282Z,8.29
2024-03-12T08:17:34.930Z,8.40
2024-03-12T08:20:01.471Z,8.12
2024-03-12T08:22:28.281Z,8.39
2024-03-12T08:24:56.058Z,8.17
2024-03-12T08:27:22.640Z,8.23
2024-03-12T08:29:49.229Z,8.41
2024-03-12T08:32:15.804Z,8.29
2024-03-12T08:34:43.066Z,8.26
2024-03-12T08:37:12.695Z,8.19
2024-03-12T08:39:39.489Z,8.12
2024-03-12T08:42:08.711Z,8.02
2024-03-12T08:44:35.296Z,8.16
2024-03-12T08:47:01.760Z,8.36
2024-03-12T08:49:28.250Z,8.29
2024-03-12T08:51:54.781Z,8.50
2024-03-12T08:54:21.314Z,8.31
2024-03-12T08:56:47.833Z,8.30
2024-03-12T08:59:15.081Z,7.92
2024-03-12T09:01:41.953Z,8.05
2024-03-12T09:04:09.295Z,8.08
2024-03-12T09:06:36.270Z,8.41
2024-03-12T09:09:02.822Z,8.67
2024-03-12T09:11:29.431Z,8.60
2024-03-12T09:13:55.970Z,8.46
2024-03-12T09:16:22.950Z,8.71
2024-03-12T09:18:49.664Z,8.76
2024-03-12T09:21:16.507Z,8.59
2024-03-12T09:23:53.477Z,8.80
2024-03-12T09:26:28.835Z,9.19
2024-03-12T09:28:55.392Z,9.06
2024-03-12T09:31:21.984Z,9.16
2024-03-12T09:33:49.101Z,8.87
2024-03-12T09:36:15.918Z,8.74
2024-03-12T09:38:45.052Z,8.88
2024-03-12T09:41:14.304Z,9.20
2024-03-12T09:43:45.043Z,9.44
2024-03-12T09:46:17.514Z,9.57
2024-03-12T09:48:46.128Z,9.36
2024-03-12T09:51:13.273Z,9.36
2024-03-12T09:53:42.301Z,9.17
2024-03-12T09:56:09.497Z,8.83
2024-03-12T09:58:36.040Z,9.11
2024-03-12T10:01:07.394Z,9.03
2024-03-12T10:03:37.177Z,9.05
2024-03-12T10:06:04.146Z,9.43
2024-03-12T10:08:30.889Z,9.40
2024-03-12T10:10:58.026Z,9.46
2024-03-12T10:13:25.121Z,9.67
2024-03-12T10:16:00.826Z,9.76
2024-03-12T10:18:30.803Z,9.96
2024-03-12T10:21:02.748Z,9.86
2024-03-12T10:23:35.727Z,9.95
2024-03-12T10:26:19.332Z,9.94
2024-03-12T10:28:47.024Z,9.96
2024-03-12T10:31:14.648Z,9.85
2024-03-12T10:33:45.788Z,9.84
2024-03-12T10:36:12.952Z,9.89
2024-03-12T10:38:41.187Z,9.86
2024-03-12T10:41:20.659Z,10.17
2024-03-12T10:43:51.118Z,10.13
2024-03-12T10:46:20.566Z,10.23
2024-03-12T10:48:48.891Z,10.12
2024-03-12T10:51:16.892Z,9.73
2024-03-12T10:53:47.589Z,9.70
2024-03-12T10:56:16.055Z,9.65
2024-03-12T10:58:47.872Z,9.49
2024-03-12T11:01:16.173Z,9.55
2024-03-12T11:03:44.088Z,9.60
2024-03-12T11:06:13.836Z,9.83
2024-03-12T11:08:40.705Z,10.00
2024-03-12T11:11:10.171Z,9.89
2024-03-12T11:13:37.084Z,9.56
2024-03-12T11:16:11.450Z,9.36
2024-03-12T11:18:40.032Z,9.65
2024-03-12T11:21:11.401Z,9.64
2024-03-12T11:23:37.996Z,9.99
2024-03-12T11:26:05.832Z,9.00
2024-03-12T11:28:33.457Z,9.49
2024-03-12T11:31:03.204Z,9.71
2024-03-12T11:33:38.818Z,9.23
2024-03-12T11:36:12.047Z,9.53
2024-03-12T11:38:38.747Z,9.46
2024-03-12T11:41:05.288Z,9.12
2024-03-12T11:43:39.323Z,9.56
2024-03-12T11:46:08.318Z,9.77
2024-03-12T11:48:42.564Z,9.88
2024-03-12T11:51:13.308Z,10.07
2024-03-12T11:53:42.578Z,9.90
2024-03-12T11:56:17.786Z,10.02
2024-03-12T11:58:49.525Z,10.27
2024-03-12T12:01:20.458Z,9.90
2024-03-12T12:03:51.410Z,10.12
2024-03-12T12:06:20.647Z,10.01
2024-03-12T12:08:57.237Z,10.01
2024-03-12T12:11:27.632Z,10.07
2024-03-12T12:14:00.540Z,10.20
2024-03-12T12:16:29.389Z,10.05
2024-03-12T12:19:06.531Z,10.38
2024-03-12T12:21:34.541Z,10.41
2024-03-12T12:24:03.695Z,10.38
2024-03-12T12:26:37.381Z,10.21
2024-03-12T12:29:05.305Z,10.69
2024-03-12T12:31:36.935Z,10.82
2024-03-12T12:34:06.565Z,10.76
2024-03-12T12:36:37.074Z,10.95
2024-03-12T12:39:05.313Z,11.07
2024-03-12T12:41:58.713Z,10.81
2024-03-12T12:44:28.352Z,11.01
2024-03-12T12:46:56.045Z,10.98
2024-03-12T12:49:23.760Z,10.86
2024-03-12T12:51:51.327Z,10.81
2024-03-12T12:54:22.730Z,10.66
2024-03-12T12:56:50.940Z,10.82
2024-03-12T12:59:21.086Z,10.52
2024-03-12T13:01:49.536Z,10.88
2024-03-12T13:04:24.348Z,10.96
2024-03-12T13:06:53.217Z,11.05
2024-03-12T13:09:30.258Z,11.38
2024-03-12T13:11:58.270Z,11.45
2024-03-12T13:14:26.724Z,11.49
2024-03-12T13:16:54.078Z,11.24
2024-03-12T13:19:21.137Z,11.06
2024-03-12T13:21:49.329Z,11.33
2024-03-12T13:24:15.913Z,11.14
2024-03-12T13:26:42.955Z,10.52
2024-03-12T13:29:09.471Z,10.74
2024-03-12T13:31:36.340Z,11.43
2024-03-12T13:34:02.854Z,10.91
2024-03-12T13:36:29.502Z,11.22
2024-03-12T13:38:56.873Z,11.37
2024-03-12T13:41:26.573Z,11.48
2024-03-12T13:43:53.549Z,11.49
2024-03-12T13:46:20.750Z,11.78
2024-03-12T13:48:47.963Z,11.75
2024-03-12T13:51:14.696Z,12.17
2024-03-12T13:53:41.710Z,11.93
2024-03-12T13:56:11.227Z,12.01
2024-03-12T13:58:40.097Z,11.86
2024-03-12T14:01:12.509Z,11.95
2024-03-12T14:03:41.251Z,12.22
2024-03-12T14:06:10.284Z,12.32
2024-03-12T14:08:37.805Z,11.82
2024-03-12T14:11:04.798Z,12.09
2024-03-12T14:13:32.835Z,11.90
2024-03-12T14:16:00.085Z,12.04
2024-03-12T14:18:27.624Z,11.97
2024-03-12T14:20:55.985Z,11.93
2024-03-12T14:23:22.922Z,11.94
2024-03-12T14:25:51.977Z,11.84
2024-03-12T14:28:18.544Z,11.04
2024-03-12T14:30:45.944Z,10.70
2024-03-12T14:33:13.234Z,10.68
2024-03-12T14:35:40.157Z,10.82
2024-03-12T14:38:06.940Z,10.88
2024-03-12T14:40:33.535Z,10.67
2024-03-12T14:43:01.620Z,10.65
2024-03-12T14:45:28.793Z,10.37
2024-03-12T14:47:57.540Z,10.94
2024-03-12T14:50:24.188Z,10.54
2024-03-12T14:52:51.113Z,10.22
2024-03-12T14:55:17.639Z,10.64
2024-03-12T14:57:44.187Z,10.90
2024-03-12T15:00:11.658Z,11.10
2024-03-12T15:02:38.482Z,11.33
2024-03-12T15:05:12.102Z,10.87
2024-03-12T15:07:44.639Z,10.73
2024-03-12T15:10:11.871Z,11.15
2024-03-12T15:12:40.842Z,11.45
2024-03-12T15:15:12.133Z,11.48
2024-03-12T15:17:42.759Z,11.36
2024-03-12T15:20:17.057Z,11.42
2024-03-12T15:22:46.347Z,11.51
2024-03-12T15:25:13.510Z,11.60
2024-03-12T15:27:41.612Z,11.60
2024-03-12T15:30:08.617Z,11.45
2024-03-12T15:32:38.940Z,11.25
2024-03-12T15:35:06.797Z,11.67
2024-03-12T15:37:33.506Z,11.77
2024-03-12T15:40:06.569Z,11.96
2024-03-12T15:42:35.038Z,12.11
2024-03-12T15:45:05.863Z,11.75
2024-03-12T15:47:35.650Z,12.04
2024-03-12T15:50:02.565Z,12.09
2024-03-12T15:52:29.200Z,12.21
2024-03-12T15:54:56.149Z,12.33
2024-03-12T15:57:24.248Z,12.53
2024-03-12T15:59:51.063Z,12.65
2024-03-12T16:02:19.043Z,12.63
2024-03-12T16:04:45.819Z,12.39
2024-03-12T16:07:13.062Z,12.56
2024-03-12T16:09:39.747Z,12.51
2024-03-12T16:12:06.663Z,12.62
2024-03-12T16:14:33.685Z,12.52
2024-03-12T16:17:00.296Z,12.56
2024-03-12T16:19:31.045Z,12.56
2024-03-12T16:21:58.473Z,12.40
2024-03-12T16:24:28.633Z,12.49
2024-03-12T16:26:57.238Z,12.53
2024-03-12T16:29:24.976Z,12.58
2024-03-12T16:31:51.966Z,12.28
2024-03-12T16:34:18.874Z,12.24
2024-03-12T16:36:45.849Z,12.01
2024-03-12T16:39:14.219Z,11.52
2024-03-12T16:41:41.449Z,11.27
2024-03-12T16:44:07.958Z,11.05
2024-03-12T16:46:35.111Z,11.54
2024-03-12T16:49:01.924Z,11.89
2024-03-12T16:51:29.035Z,11.92
2024-03-12T16:53:55.807Z,11.97
2024-03-12T16:58:52.219Z,12.03
2024-03-12T17:01:21.112Z,12.22
2024-03-12T17:03:48.433Z,11.87
2024-03-12T17:06:17.261Z,11.89
2024-03-12T17:08:44.262Z,11.86
2024-03-12T17:11:11.173Z,11.96
2024-03-12T17:13:39.097Z,12.03
2024-03-12T17:16:08.165Z,11.92
2024-03-12T17:18:35.728Z,12.10
2024-03-12T17:21:03.770Z,12.15
2024-03-12T17:23:31.245Z,12.11
2024-03-12T17:25:58.457Z,12.16
2024-03-12T17:28:25.539Z,12.10
2024-03-12T17:30:52.579Z,12.02
2024-03-12T17:33:19.508Z,11.94
2024-03-12T17:35:48.500Z,11.80
2024-03-12T17:38:21.827Z,11.72
2024-03-12T17:40:53.933Z,11.84
2024-03-12T17:43:21.804Z,11.86
2024-03-12T17:45:48.672Z,11.87
2024-03-12T17:48:20.114Z,11.60
2024-03-12T17:50:46.904Z,11.28
2024-03-12T17:53:13.776Z,11.34
2024-03-12T17:55:43.858Z,11.43
2024-03-12T17:58:12.761Z,11.31
2024-03-12T18:00:39.582Z,11.38
2024-03-12T18:03:06.527Z,11.28
2024-03-12T18:05:33.176Z,11.30
2024-03-12T18:08:00.260Z,11.35
2024-03-12T18:10:28.150Z,11.33
2024-03-12T18:12:55.480Z,11.30
2024-03-12T18:15:24.285Z,11.14
2024-03-12T18:17:51.076Z,11.00
2024-03-12T18:20:29.010Z,10.87
2024-03-12T18:22:55.530Z,10.79
2024-03-12T18:25:22.566Z,10.50
2024-03-12T18:27:54.748Z,10.30
2024-03-12T18:30:21.565Z,10.45
2024-03-12T18:32:49.838Z,10.82
2024-03-12T18:35:18.322Z,10.81
2024-03-12T18:37:45.978Z,11.00
2024-03-12T18:40:14.346Z,11.00
2024-03-12T18:42:45.552Z,11.02
2024-03-12T18:45:18.966Z,11.05
2024-03-12T18:47:48.343Z,10.92
2024-03-12T18:50:15.709Z,10.76
2024-03-12T18:52:43.616Z,10.63
2024-03-12T18:55:11.292Z,10.73
2024-03-12T18:57:41.870Z,10.66
2024-03-12T19:00:18.953Z,10.54
2024-03-12T19:02:49.593Z,10.36
2024-03-12T19:05:21.330Z,10.40
2024-03-12T19:07:52.892Z,10.44
2024-03-12T19:10:20.792Z,10.63
2024-03-12T19:12:47.985Z,10.73
2024-03-12T19:15:16.617Z,10.91
2024-03-12T19:17:45.418Z,11.16
2024-03-12T19:20:16.958Z,11.34
2024-03-12T19:22:45.073Z,11.28
2024-03-12T19:25:13.532Z,11.43
2024-03-12T19:27:42.686Z,11.40
2024-03-12T19:30:09.560Z,11.61
2024-03-12T19:32:39.181Z,11.47
2024-03-12T19:35:07.958Z,11.36
2024-03-12T19:37:38.495Z,11.49
2024-03-12T19:40:17.616Z,11.35
2024-03-12T19:42:46.034Z,11.43
2024-03-12T19:45:13.202Z,11.23
2024-03-12T19:47:45.173Z,11.38
2024-03-12T19:50:21.092Z,11.48
2024-03-12T19:52:48.751Z,11.32
2024-03-12T19:55:19.797Z,11.32
2024-03-12T19:57:48.491Z,11.38
2024-03-12T20:00:19.748Z,11.38
2024-03-12T20:02:50.108Z,11.38
2024-03-12T20:05:20.475Z,11.34
2024-03-12T20:07:47.174Z,11.16
2024-03-12T20:10:14.726Z,11.36
2024-03-12T20:12:41.456Z,11.57
2024-03-12T20:15:12.806Z,11.49
2024-03-12T20:17:42.740Z,11.44
2024-03-12T20:20:14.329Z,11.50
2024-03-12T20:22:42.179Z,11.61
2024-03-12T20:25:12.839Z,11.66
2024-03-12T20:27:39.665Z,11.70
2024-03-12T20:30:06.823Z,11.59
2024-03-12T20:32:33.606Z,11.50
2024-03-12T20:35:00.687Z,11.51
2024-03-12T20:37:27.438Z,11.42
2024-03-12T20:39:54.219Z,11.26
2024-03-12T20:42:23.131Z,11.07
2024-03-12T20:44:50.812Z,10.95
2024-03-12T20:47:19.269Z,10.94
2024-03-12T20:49:46.236Z,10.61
2024-03-12T20:52:14.416Z,10.52
2024-03-12T20:54:43.791Z,10.63
2024-03-12T20:57:12.263Z,10.49
2024-03-12T20:59:42.413Z,10.54
2024-03-12T21:02:13.404Z,10.65
2024-03-12T21:04:42.854Z,10.59
2024-03-12T21:07:12.620Z,10.58
2024-03-12T21:09:39.766Z,10.70
2024-03-12T21:12:06.556Z,10.73
2024-03-12T21:14:33.122Z,10.54
2024-03-12T21:17:03.733Z,10.59
2024-03-12T21:19:30.599Z,10.54
2024-03-12T21:21:57.334Z,10.45
2024-03-12T21:24:24.985Z,10.40
2024-03-12T21:26:51.849Z,10.21
2024-03-12T21:29:19.867Z,9.95
2024-03-12T21:31:46.808Z,9.79
2024-03-12T21:34:13.492Z,9.75
2024-03-12T21:36:43.217Z,9.90
2024-03-12T21:39:10.005Z,9.89
2024-03-12T21:41:36.937Z,10.02
2024-03-12T21:44:03.437Z,10.14
2024-03-12T21:46:29.894Z,9.98
2024-03-12T21:48:56.589Z,9.71
2024-03-12T21:51:27.829Z,10.09
2024-03-12T21:53:57.996Z,10.08
2024-03-12T21:56:27.474Z,10.20
2024-03-12T21:58:54.319Z,10.29
2024-03-12T22:01:22.092Z,10.31
2024-03-12T22:03:51.354Z,9.91
2024-03-12T22:06:18.226Z,9.91
2024-03-12T22:08:47.467Z,9.99
2024-03-12T22:11:15.043Z,9.79
2024-03-12T22:13:45.447Z,9.95
2024-03-12T22:16:15.986Z,9.80
2024-03-12T22:18:43.731Z,9.60
2024-03-12T22:21:11.283Z,9.58
2024-03-12T22:23:41.477Z,9.46
2024-03-12T22:26:08.965Z,9.45
2024-03-12T22:28:36.101Z,9.54
2024-03-12T22:31:04.228Z,9.63
2024-03-12T22:33:30.828Z,9.30
2024-03-12T22:35:58.152Z,9.24
2024-03-12T22:38:28.423Z,9.48
2024-03-12T22:40:55.321Z,9.54
2024-03-12T22:43:27.399Z,9.65
2024-03-12T22:45:55.204Z,9.69
2024-03-12T22:48:22.410Z,9.49
2024-03-12T22:50:49.149Z,9.59
2024-03-12T22:53:20.144Z,9.51
2024-03-12T22:55:46.997Z,9.71
2024-03-12T22:58:13.771Z,9.82
2024-03-12T23:00:42.060Z,9.98
2024-03-12T23:03:13.796Z,9.90
2024-03-12T23:05:43.419Z,9.75
2024-03-12T23:08:15.336Z,9.95
2024-03-12T23:10:45.058Z,10.16
2024-03-12T23:13:12.422Z,10.19
2024-03-12T23:15:39.991Z,10.05
2024-03-12T23:18:10.562Z,9.86
2024-03-12T23:20:40.312Z,10.00
2024-03-12T23:23:08.309Z,9.90
2024-03-12T23:25:35.727Z,10.07
2024-03-12T23:28:02.345Z,10.09
2024-03-12T23:30:28.916Z,9.84
2024-03-12T23:32:58.949Z,10.02
2024-03-12T23:35:27.857Z,10.08
2024-03-12T23:37:58.203Z,10.04
2024-03-12T23:40:25.938Z,10.27
2024-03-12T23:42:54.695Z,10.29
2024-03-12T23:45:21.993Z,10.15
2024-03-12T23:47:49.457Z,10.29
2024-03-12T23:50:16.226Z,10.53
2024-03-12T23:52:43.104Z,10.72
2024-03-12T23:55:10.881Z,10.45
2024-03-12T23:57:38.194Z,10.48
